createdAt,value
2023-05-14T00:01:20.561Z,101797.28
2023-05-14T00:03:48.892Z,101793.25
2023-05-14T00:06:16.140Z,101801.78
2023-05-14T00:08:42.990Z,101796.16
2023-05-14T00:11:09.775Z,101790.44
2023-05-14T00:13:36.900Z,101788.78
2023-05-14T00:16:04.191Z,101784.28
2023-05-14T00:18:31.093Z,101780.19
2023-05-14T00:20:59.414Z,101780.72
2023-05-14T00:23:26.291Z,101791.72
2023-05-14T00:25:53.142Z,101783.41
2023-05-14T00:28:20.468Z,101783.69
2023-05-14T00:30:47.344Z,101786.13
2023-05-14T00:33:14.138Z,101782.50
2023-05-14T00:35:41.062Z,101786.91
2023-05-14T00:38:09.876Z,101793.53
2023-05-14T00:40:36.741Z,101785.50
2023-05-14T00:43:03.790Z,101783.19
2023-05-14T00:45:31.082Z,101782.91
2023-05-14T00:47:57.947Z,101779.41
2023-05-14T00:50:25.334Z,101778.78
2023-05-14T00:52:52.560Z,101777.25
2023-05-14T00:55:21.892Z,101766.81
2023-05-14T00:57:50.419Z,101770.47
2023-05-14T01:00:18.133Z,101761.69
2023-05-14T01:02:45.424Z,101765.94
2023-05-14T01:05:12.615Z,101764.00
2023-05-14T01:07:49.418Z,101760.28
2023-05-14T01:10:24.550Z,101763.59
2023-05-14T01:13:00.411Z,101760.16
2023-05-14T01:15:31.117Z,101759.94
2023-05-14T01:18:01.902Z,101766.72
2023-05-14T01:20:28.740Z,101758.06
2023-05-14T01:22:56.922Z,101768.84
2023-05-14T01:25:23.910Z,101769.72
2023-05-14T01:27:59.501Z,101758.16
2023-05-14T01:30:31.118Z,101762.16
2023-05-14T01:33:00.704Z,101755.88
2023-05-14T01:35:29.268Z,101758.56
2023-05-14T01:38:00.706Z,101754.53
2023-05-14T01:40:27.865Z,101761.72
2023-05-14T01:42:55.581Z,101752.13
2023-05-14T01:45:23.071Z,101754.34
2023-05-14T01:47:50.084Z,101749.50
2023-05-14T01:50:17.087Z,101744.63
2023-05-14T01:52:44.105Z,101753.63
2023-05-14T01:55:12.373Z,101764.19
2023-05-14T01:57:39.434Z,101744.97
2023-05-14T02:00:07.519Z,101756.66
2023-05-14T02:02:34.550Z,101757.75
2023-05-14T02:05:01.468Z,101741.09
2023-05-14T02:07:28.302Z,101738.34
2023-05-14T02:09:55.183Z,101735.44
2023-05-14T02:12:23.531Z,101719.41
2023-05-14T02:14:50.387Z,101726.31
2023-05-14T02:17:17.905Z,101724.09
2023-05-14T02:19:44.732Z,101723.75
2023-05-14T02:22:11.881Z,101724.25
2023-05-14T02:24:38.852Z,101729.38
2023-05-14T02:27:06.402Z,101726.28
2023-05-14T02:29:34.739Z,101714.63
2023-05-14T02:32:01.590Z,101712.50
2023-05-14T02:34:28.508Z,101721.38
2023-05-14T02:36:55.607Z,101721.66
2023-05-14T02:39:22.519Z,101719.84
2023-05-14T02:41:49.314Z,101711.06
2023-05-14T02:44:16.161Z,101720.75
2023-05-14T02:46:45.698Z,101719.59
2023-05-14T02:49:12.586Z,101714.28
2023-05-14T02:51:39.964Z,101709.56
2023-05-14T02:54:07.266Z,101711.16
2023-05-14T02:56:33.953Z,101720.03
2023-05-14T02:59:00.819Z,101712.91
2023-05-14T03:01:28.563Z,101716.69
2023-05-14T03:03:57.367Z,101710.25
2023-05-14T03:06:24.201Z,101713.28
2023-05-14T03:08:51.147Z,101707.22
2023-05-14T03:11:18.004Z,101707.00
2023-05-14T03:13:44.817Z,101707.94
2023-05-14T03:16:11.685Z,101704.72
2023-05-14T03:18:38.583Z,101698.34
2023-05-14T03:21:06.856Z,101694.13
2023-05-14T03:23:35.116Z,101685.06
2023-05-14T03:26:02.316Z,101689.47
2023-05-14T03:28:29.228Z,101679.84
2023-05-14T03:30:56.097Z,101686.75
2023-05-14T03:33:23.701Z,101689.97
2023-05-14T03:35:51.641Z,101682.91
2023-05-14T03:38:19.888Z,101682.75
2023-05-14T03:40:46.822Z,101690.25
2023-05-14T03:43:13.659Z,101686.63
2023-05-14T03:45:40.544Z,101681.53
2023-05-14T03:48:07.475Z,101677.69
2023-05-14T03:50:34.485Z,101678.13
2023-05-14T03:53:01.457Z,101672.28
2023-05-14T03:55:29.846Z,101680.16
2023-05-14T03:57:56.852Z,101685.31
2023-05-14T04:00:24.014Z,101684.03
2023-05-14T04:02:51.247Z,101680.66
2023-05-14T04:05:18.207Z,101698.41
2023-05-14T04:07:46.168Z,101696.16
2023-05-14T04:10:13.720Z,101687.81
2023-05-14T04:12:42.006Z,101706.31
2023-05-14T04:15:10.249Z,101701.13
2023-05-14T04:17:37.117Z,101711.91
2023-05-14T04:20:04.698Z,101717.28
2023-05-14T04:22:32.370Z,101720.00
2023-05-14T04:24:59.233Z,101719.34
2023-05-14T04:27:26.046Z,101721.66
2023-05-14T04:29:54.422Z,101720.66
2023-05-14T04:32:21.549Z,101718.81
2023-05-14T04:34:48.487Z,101725.78
2023-05-14T04:37:15.875Z,101711.22
2023-05-14T04:39:42.823Z,101713.09
2023-05-14T04:42:09.853Z,101720.03
2023-05-14T04:44:37.692Z,101716.78
2023-05-14T04:47:07.002Z,101710.22
2023-05-14T04:49:33.876Z,101704.72
2023-05-14T04:52:01.086Z,101708.94
2023-05-14T04:54:27.975Z,101714.22
2023-05-14T04:56:55.996Z,101710.41
2023-05-14T04:59:22.999Z,101705.09
2023-05-14T05:01:49.903Z,101706.88
2023-05-14T05:04:18.267Z,101700.69
2023-05-14T05:06:45.280Z,101696.78
2023-05-14T05:09:12.397Z,101703.72
2023-05-14T05:11:39.249Z,101708.88
2023-05-14T05:14:06.049Z,101706.16
2023-05-14T05:16:32.976Z,101710.78
2023-05-14T05:18:59.976Z,101717.19
2023-05-14T05:21:28.442Z,101712.38
2023-05-14T05:23:56.002Z,101709.34
2023-05-14T05:26:23.090Z,101710.78
2023-05-14T05:28:50.037Z,101708.44
2023-05-14T05:31:19.049Z,101705.91
2023-05-14T05:33:46.732Z,101722.13
2023-05-14T05:36:13.582Z,101728.13
2023-05-14T05:38:41.794Z,101728.22
2023-05-14T05:41:08.635Z,101721.66
2023-05-14T05:43:35.535Z,101732.63
2023-05-14T05:46:02.505Z,101724.34
2023-05-14T05:48:29.440Z,101723.50
2023-05-14T05:50:56.458Z,101729.06
2023-05-14T05:53:23.418Z,101722.09
2023-05-14T05:55:51.721Z,101728.34
2023-05-14T05:58:19.111Z,101729.91
2023-05-14T06:00:47.150Z,101731.22
2023-05-14T06:03:14.163Z,101730.16
2023-05-14T06:05:41.204Z,101736.78
2023-05-14T06:08:08.105Z,101742.44
2023-05-14T06:10:36.230Z,101739.13
2023-05-14T06:13:04.597Z,101735.94
2023-05-14T06:15:31.462Z,101728.88
2023-05-14T06:17:58.415Z,101732.41
2023-05-14T06:20:25.667Z,101734.09
2023-05-14T06:22:52.731Z,101734.84
2023-05-14T06:25:19.830Z,101742.53
2023-05-14T06:27:46.711Z,101743.59
2023-05-14T06:30:16.048Z,101748.97
2023-05-14T06:32:42.979Z,101751.75
2023-05-14T06:35:10.483Z,101756.78
2023-05-14T06:37:37.377Z,101745.69
2023-05-14T06:40:05.572Z,101743.91
2023-05-14T06:42:32.465Z,101744.53
2023-05-14T06:44:59.545Z,101732.41
2023-05-14T06:47:27.803Z,101735.19
2023-05-14T06:49:55.903Z,101736.78
2023-05-14T06:52:22.782Z,101737.28
2023-05-14T06:54:49.603Z,101744.50
2023-05-14T06:57:16.466Z,101731.06
2023-05-14T06:59:43.435Z,101752.88
2023-05-14T07:02:10.636Z,101742.78
2023-05-14T07:04:38.928Z,101745.63
2023-05-14T07:07:05.977Z,101741.50
2023-05-14T07:09:32.935Z,101742.47
2023-05-14T07:11:59.774Z,101743.50
2023-05-14T07:14:26.851Z,101748.44
2023-05-14T07:16:54.298Z,101751.69
2023-05-14T07:19:22.426Z,101751.59
2023-05-14T07:21:51.097Z,101750.66
2023-05-14T07:24:17.913Z,101751.84
2023-05-14T07:26:44.934Z,101751.47
2023-05-14T07:29:11.874Z,101745.63
2023-05-14T07:31:38.882Z,101748.31
2023-05-14T07:34:05.708Z,101759.47
2023-05-14T07:36:32.729Z,101750.41
2023-05-14T07:39:01.019Z,101750.66
2023-05-14T07:41:27.894Z,101747.81
2023-05-14T07:43:54.746Z,101750.22
2023-05-14T07:46:21.665Z,101741.50
2023-05-14T07:48:48.469Z,101744.19
2023-05-14T07:51:15.369Z,101735.13
2023-05-14T07:53:42.188Z,101737.16
2023-05-14T07:56:10.566Z,101738.28
2023-05-14T07:58:37.453Z,101742.97
2023-05-14T08:01:07.202Z,101742.34
2023-05-14T08:03:34.364Z,101738.16
2023-05-14T08:06:01.265Z,101742.31
2023-05-14T08:08:28.054Z,101741.91
2023-05-14T08:10:54.978Z,101743.53
2023-05-14T08:13:23.194Z,101748.66
2023-05-14T08:15:49.990Z,101741.97
2023-05-14T08:18:17.061Z,101735.41
2023-05-14T08:20:43.940Z,101742.19
2023-05-14T08:23:11.244Z,101749.97
2023-05-14T08:25:38.153Z,101749.06
2023-05-14T08:28:05.517Z,101744.31
2023-05-14T08:30:34.320Z,101750.47
2023-05-14T08:33:01.301Z,101749.34
2023-05-14T08:35:28.145Z,101747.22
2023-05-14T08:37:54.995Z,101752.88
2023-05-14T08:40:22.525Z,101750.75
2023-05-14T08:42:51.256Z,101749.00
2023-05-14T08:45:19.602Z,101753.50
2023-05-14T08:47:50.617Z,101747.09
2023-05-14T08:50:20.399Z,101759.88
2023-05-14T08:52:49.044Z,101744.38
2023-05-14T08:55:15.950Z,101736.13
2023-05-14T08:57:42.959Z,101738.22
2023-05-14T09:00:13.519Z,101739.41
2023-05-14T09:02:41.726Z,101740.47
2023-05-14T09:05:11.021Z,101739.72
2023-05-14T09:07:37.936Z,101733.00
2023-05-14T09:10:05.731Z,101732.06
2023-05-14T09:12:32.728Z,101726.97
2023-05-14T09:14:59.559Z,101722.78
2023-05-14T09:17:30.032Z,101717.56
2023-05-14T09:19:57.010Z,101712.72
2023-05-14T09:22:25.293Z,101708.75
2023-05-14T09:25:06.233Z,101720.03
2023-05-14T09:27:34.146Z,101714.63
2023-05-14T09:30:10.672Z,101704.84
2023-05-14T09:32:39.486Z,101721.72
2023-05-14T09:35:14.713Z,101709.38
2023-05-14T09:37:44.038Z,101703.16
2023-05-14T09:40:11.939Z,101706.56
2023-05-14T09:42:38.795Z,101697.06
2023-05-14T09:45:07.720Z,101708.78
2023-05-14T09:47:34.742Z,101694.28
2023-05-14T09:50:01.629Z,101708.41
2023-05-14T09:52:28.573Z,101700.16
2023-05-14T09:54:57.014Z,101698.13
2023-05-14T09:57:24.141Z,101700.06
2023-05-14T09:59:50.980Z,101698.88
2023-05-14T10:02:23.288Z,101695.31
2023-05-14T10:04:51.973Z,101698.84
2023-05-14T10:07:23.383Z,101697.41
2023-05-14T10:09:59.817Z,101694.59
2023-05-14T10:12:29.455Z,101689.63
2023-05-14T10:14:59.926Z,101686.22
2023-05-14T10:17:31.279Z,101684.38
2023-05-14T10:20:00.056Z,101680.47
2023-05-14T10:22:33.951Z,101683.28
2023-05-14T10:25:03.159Z,101679.69
2023-05-14T10:27:30.540Z,101673.59
2023-05-14T10:29:57.972Z,101673.47
2023-05-14T10:32:26.408Z,101664.59
2023-05-14T10:34:54.049Z,101668.50
2023-05-14T10:37:23.148Z,101664.69
2023-05-14T10:39:51.721Z,101657.16
2023-05-14T10:42:21.368Z,101662.84
2023-05-14T10:44:52.197Z,101660.47
2023-05-14T10:47:19.329Z,101651.28
2023-05-14T10:49:49.193Z,101658.81
2023-05-14T10:52:19.741Z,101645.50
2023-05-14T10:54:57.059Z,101656.53
2023-05-14T10:57:27.606Z,101645.56
2023-05-14T10:59:56.069Z,101647.34
2023-05-14T11:02:25.184Z,101647.94
2023-05-14T11:04:57.358Z,101648.03
2023-05-14T11:07:27.842Z,101643.84
2023-05-14T11:10:00.089Z,101654.34
2023-05-14T11:12:28.593Z,101639.03
2023-05-14T11:14:58.211Z,101647.78
2023-05-14T11:17:26.449Z,101649.56
2023-05-14T11:19:54.252Z,101639.97
2023-05-14T11:22:21.203Z,101650.53
2023-05-14T11:24:48.104Z,101640.25
2023-05-14T11:27:16.025Z,101632.38
2023-05-14T11:29:46.962Z,101641.84
2023-05-14T11:32:15.111Z,101628.41
2023-05-14T11:34:44.850Z,101630.13
2023-05-14T11:37:15.367Z,101623.81
2023-05-14T11:39:48.268Z,101626.44
2023-05-14T11:42:17.477Z,101635.13
2023-05-14T11:44:47.049Z,101628.16
2023-05-14T11:47:13.898Z,101622.09
2023-05-14T11:49:41.005Z,101635.78
2023-05-14T11:52:11.610Z,101622.13
2023-05-14T11:54:38.487Z,101619.13
2023-05-14T11:57:09.604Z,101624.22
2023-05-14T11:59:36.887Z,101621.34
2023-05-14T12:02:06.155Z,101620.44
2023-05-14T12:04:33.173Z,101622.78
2023-05-14T12:07:00.799Z,101620.00
2023-05-14T12:09:27.694Z,101611.91
2023-05-14T12:11:54.546Z,101615.97
2023-05-14T12:14:23.085Z,101616.81
2023-05-14T12:16:51.579Z,101608.66
2023-05-14T12:19:21.308Z,101616.41
2023-05-14T12:21:50.911Z,101603.66
2023-05-14T12:24:20.030Z,101605.34
2023-05-14T12:26:48.419Z,101603.66
2023-05-14T12:29:16.442Z,101608.25
2023-05-14T12:31:47.887Z,101598.91
2023-05-14T12:34:15.425Z,101601.34
2023-05-14T12:36:44.116Z,101600.56
2023-05-14T12:39:12.231Z,101588.75
2023-05-14T12:41:39.129Z,101596.47
2023-05-14T12:44:06.346Z,101588.34
2023-05-14T12:46:34.501Z,101590.31
2023-05-14T12:49:01.398Z,101584.66
2023-05-14T12:51:28.390Z,101585.06
2023-05-14T12:53:56.674Z,101582.59
2023-05-14T12:56:27.898Z,101578.16
2023-05-14T12:58:55.803Z,101576.47
2023-05-14T13:01:22.700Z,101577.34
2023-05-14T13:03:49.767Z,101572.88
2023-05-14T13:06:16.712Z,101568.34
2023-05-14T13:08:43.923Z,101582.63
2023-05-14T13:11:12.253Z,101573.66
2023-05-14T13:13:39.150Z,101570.84
2023-05-14T13:16:06.711Z,101575.31
2023-05-14T13:18:33.589Z,101568.38
2023-05-14T13:21:00.739Z,101572.88
2023-05-14T13:23:27.651Z,101568.41
2023-05-14T13:25:54.565Z,101581.00
2023-05-14T13:28:22.839Z,101587.53
2023-05-14T13:31:05.072Z,101585.69
2023-05-14T13:33:32.621Z,101581.81
2023-05-14T13:35:59.481Z,101583.81
2023-05-14T13:38:26.377Z,101591.16
2023-05-14T13:40:54.389Z,101577.63
2023-05-14T13:43:22.664Z,101573.94
2023-05-14T13:45:50.007Z,101572.38
2023-05-14T13:48:16.952Z,101571.56
2023-05-14T13:50:43.976Z,101566.94
2023-05-14T13:53:10.946Z,101566.50
2023-05-14T13:55:37.817Z,101574.25
2023-05-14T13:58:04.749Z,101564.50
2023-05-14T14:00:32.974Z,101576.03
2023-05-14T14:02:59.880Z,101570.13
2023-05-14T14:05:28.734Z,101556.16
2023-05-14T14:08:01.113Z,101560.75
2023-05-14T14:10:35.542Z,101563.59
2023-05-14T14:13:02.410Z,101567.50
2023-05-14T14:15:29.413Z,101558.91
2023-05-14T14:17:57.782Z,101558.38
2023-05-14T14:20:24.667Z,101562.50
2023-05-14T14:22:51.613Z,101553.25
2023-05-14T14:25:18.553Z,101551.41
2023-05-14T14:27:47.419Z,101547.81
2023-05-14T14:30:15.753Z,101544.91
2023-05-14T14:32:43.793Z,101543.66
2023-05-14T14:35:13.259Z,101544.88
2023-05-14T14:37:41.118Z,101547.16
2023-05-14T14:40:09.971Z,101540.31
2023-05-14T14:42:37.786Z,101539.38
2023-05-14T14:45:05.594Z,101547.09
2023-05-14T14:47:32.567Z,101533.88
2023-05-14T14:49:59.460Z,101530.63
2023-05-14T14:52:28.376Z,101524.88
2023-05-14T14:54:58.277Z,101536.78
2023-05-14T14:57:25.256Z,101537.50
2023-05-14T14:59:52.091Z,101527.81
2023-05-14T15:02:19.062Z,101520.16
2023-05-14T15:04:46.019Z,101521.19
2023-05-14T15:07:12.870Z,101517.28
2023-05-14T15:09:41.214Z,101521.09
2023-05-14T15:12:09.091Z,101518.22
2023-05-14T15:14:35.961Z,101514.28
2023-05-14T15:17:02.906Z,101527.97
2023-05-14T15:19:31.316Z,101509.19
2023-05-14T15:21:58.218Z,101522.94
2023-05-14T15:24:26.268Z,101512.84
2023-05-14T15:26:54.595Z,101519.00
2023-05-14T15:29:21.446Z,101528.94
2023-05-14T15:31:48.429Z,101513.50
2023-05-14T15:34:15.310Z,101516.47
2023-05-14T15:36:42.192Z,101513.56
2023-05-14T15:39:10.628Z,101517.25
2023-05-14T15:41:37.877Z,101522.41
2023-05-14T15:44:06.279Z,101512.66
2023-05-14T15:46:33.169Z,101514.06
2023-05-14T15:49:00.072Z,101516.28
2023-05-14T15:51:26.975Z,101506.94
2023-05-14T15:53:54.236Z,101515.75
2023-05-14T15:56:21.167Z,101512.56
2023-05-14T15:58:48.383Z,101523.09
2023-05-14T16:01:16.741Z,101511.75
2023-05-14T16:03:43.830Z,101514.88
2023-05-14T16:06:11.625Z,101514.34
2023-05-14T16:08:38.746Z,101515.53
2023-05-14T16:11:06.414Z,101508.50
2023-05-14T16:13:33.826Z,101513.44
2023-05-14T16:16:01.360Z,101512.59
2023-05-14T16:18:31.705Z,101511.16
2023-05-14T16:20:58.810Z,101520.34
2023-05-14T16:23:25.735Z,101516.66
2023-05-14T16:25:52.681Z,101517.69
2023-05-14T16:28:19.599Z,101514.81
2023-05-14T16:30:46.339Z,101514.31
2023-05-14T16:33:13.210Z,101509.44
2023-05-14T16:35:41.443Z,101505.56
2023-05-14T16:38:08.311Z,101507.06
2023-05-14T16:40:35.198Z,101501.00
2023-05-14T16:43:02.009Z,101500.06
2023-05-14T16:45:28.890Z,101493.25
2023-05-14T16:47:55.785Z,101499.50
2023-05-14T16:50:22.583Z,101493.81
2023-05-14T16:52:50.774Z,101494.97
2023-05-14T16:55:19.461Z,101502.53
2023-05-14T16:57:46.322Z,101492.03
2023-05-14T17:00:15.105Z,101497.50
2023-05-14T17:02:41.974Z,101498.94
2023-05-14T17:05:09.551Z,101501.44
2023-05-14T17:07:38.147Z,101499.56
2023-05-14T17:10:07.498Z,101494.88
2023-05-14T17:12:34.488Z,101492.75
2023-05-14T17:15:03.706Z,101498.53
2023-05-14T17:17:32.746Z,101504.13
2023-05-14T17:19:59.711Z,101494.16
2023-05-14T17:22:26.583Z,101490.16
2023-05-14T17:24:53.453Z,101496.94
2023-05-14T17:27:21.722Z,101491.03
2023-05-14T17:29:51.101Z,101488.84
2023-05-14T17:32:18.349Z,101500.72
2023-05-14T17:34:45.332Z,101494.41
2023-05-14T17:37:12.418Z,101492.75
2023-05-14T17:39:39.290Z,101486.63
2023-05-14T17:42:06.908Z,101473.19
2023-05-14T17:44:36.374Z,101477.84
2023-05-14T17:47:04.815Z,101475.78
2023-05-14T17:49:31.787Z,101471.31
2023-05-14T17:51:58.780Z,101464.28
2023-05-14T17:54:25.786Z,101466.03
2023-05-14T17:56:52.940Z,101463.66
2023-05-14T17:59:20.867Z,101463.03
2023-05-14T18:01:50.223Z,101468.50
2023-05-14T18:04:17.140Z,101470.75
2023-05-14T18:06:44.669Z,101477.00
2023-05-14T18:09:11.583Z,101466.09
2023-05-14T18:11:38.372Z,101477.00
2023-05-14T18:14:05.203Z,101474.00
2023-05-14T18:16:32.141Z,101478.03
2023-05-14T18:19:00.590Z,101474.66
2023-05-14T18:21:27.419Z,101481.63
2023-05-14T18:23:54.440Z,101483.56
2023-05-14T18:26:22.153Z,101488.44
2023-05-14T18:28:49.060Z,101483.13
2023-05-14T18:31:16.130Z,101484.19
2023-05-14T18:33:43.241Z,101488.41
2023-05-14T18:36:11.834Z,101485.13
2023-05-14T18:38:38.887Z,101486.66
2023-05-14T18:41:05.709Z,101478.44
2023-05-14T18:43:32.546Z,101488.41
2023-05-14T18:45:59.488Z,101486.63
2023-05-14T18:48:26.451Z,101481.78
2023-05-14T18:50:53.341Z,101478.03
2023-05-14T18:53:21.679Z,101471.31
2023-05-14T18:55:48.603Z,101469.97
2023-05-14T18:58:17.538Z,101471.88
2023-05-14T19:00:44.408Z,101471.97
2023-05-14T19:03:11.446Z,101465.91
2023-05-14T19:05:38.392Z,101476.38
2023-05-14T19:08:05.964Z,101480.28
2023-05-14T19:10:34.827Z,101480.28
2023-05-14T19:13:02.175Z,101480.78
2023-05-14T19:15:29.096Z,101478.34
2023-05-14T19:17:56.124Z,101478.28
2023-05-14T19:20:23.084Z,101471.69
2023-05-14T19:22:49.953Z,101464.84
2023-05-14T19:25:16.885Z,101461.22
2023-05-14T19:27:47.695Z,101459.53
2023-05-14T19:30:14.988Z,101462.25
2023-05-14T19:32:41.920Z,101469.50
2023-05-14T19:35:09.469Z,101462.59
2023-05-14T19:37:36.370Z,101459.13
2023-05-14T19:40:03.663Z,101468.19
2023-05-14T19:42:31.841Z,101464.91
2023-05-14T19:45:00.060Z,101468.69
2023-05-14T19:47:28.629Z,101474.38
2023-05-14T19:49:55.532Z,101487.91
2023-05-14T19:52:22.390Z,101494.47
2023-05-14T19:54:49.297Z,101490.06
2023-05-14T19:57:16.266Z,101484.31
2023-05-14T19:59:44.406Z,101482.31
2023-05-14T20:02:18.504Z,101479.38
2023-05-14T20:04:46.277Z,101487.44
2023-05-14T20:07:15.697Z,101491.56
2023-05-14T20:09:42.729Z,101493.00
2023-05-14T20:12:09.965Z,101490.28
2023-05-14T20:14:36.908Z,101489.09
2023-05-14T20:17:04.564Z,101493.09
2023-05-14T20:19:32.922Z,101493.69
2023-05-14T20:21:59.831Z,101487.31
2023-05-14T20:24:26.634Z,101484.06
2023-05-14T20:26:53.560Z,101488.72
2023-05-14T20:29:20.447Z,101487.78
2023-05-14T20:31:47.251Z,101482.59
2023-05-14T20:34:14.241Z,101490.22
2023-05-14T20:36:42.498Z,101491.03
2023-05-14T20:39:11.007Z,101494.31
2023-05-14T20:41:37.909Z,101494.19
2023-05-14T20:44:04.886Z,101496.06
2023-05-14T20:46:31.793Z,101493.03
2023-05-14T20:49:01.673Z,101481.91
2023-05-14T20:51:28.567Z,101496.91
2023-05-14T20:53:56.854Z,101491.13
2023-05-14T20:56:23.723Z,101493.22
2023-05-14T20:58:50.591Z,101493.06
2023-05-14T21:01:17.530Z,101493.31
2023-05-14T21:03:44.598Z,101488.88
2023-05-14T21:06:11.593Z,101489.34
2023-05-14T21:08:40.403Z,101492.84
2023-05-14T21:11:08.629Z,101488.38
2023-05-14T21:13:35.848Z,101489.88
2023-05-14T21:16:02.824Z,101485.06
2023-05-14T21:18:32.833Z,101474.53
2023-05-14T21:20:59.835Z,101477.06
2023-05-14T21:23:26.760Z,101471.72
2023-05-14T21:25:54.964Z,101476.31
2023-05-14T21:28:23.250Z,101471.19
2023-05-14T21:30:51.015Z,101468.69
2023-05-14T21:33:17.912Z,101466.97
2023-05-14T21:35:44.716Z,101468.00
2023-05-14T21:38:11.901Z,101460.44
2023-05-14T21:40:38.775Z,101454.34
2023-05-14T21:43:05.690Z,101455.16
2023-05-14T21:45:33.894Z,101443.81
2023-05-14T21:48:00.916Z,101446.44
2023-05-14T21:50:28.021Z,101436.03
2023-05-14T21:52:55.001Z,101428.91
2023-05-14T21:55:22.192Z,101422.50
2023-05-14T21:57:49.524Z,101421.53
2023-05-14T22:00:23.488Z,101425.00
2023-05-14T22:02:52.706Z,101421.44
2023-05-14T22:05:19.759Z,101428.50
2023-05-14T22:07:46.652Z,101433.50
2023-05-14T22:10:14.824Z,101443.56
2023-05-14T22:12:43.360Z,101441.28
2023-05-14T22:15:11.222Z,101434.22
2023-05-14T22:17:38.686Z,101440.41
2023-05-14T22:20:10.161Z,101446.81
2023-05-14T22:22:37.548Z,101446.97
2023-05-14T22:25:05.231Z,101441.06
2023-05-14T22:27:32.246Z,101442.00
2023-05-14T22:29:59.190Z,101436.84
2023-05-14T22:32:26.056Z,101430.84
2023-05-14T22:34:52.932Z,101431.22
2023-05-14T22:37:21.274Z,101436.91
2023-05-14T22:39:48.098Z,101430.97
2023-05-14T22:42:14.955Z,101428.97
2023-05-14T22:44:41.809Z,101429.53
2023-05-14T22:47:08.734Z,101417.00
2023-05-14T22:49:35.583Z,101415.03
2023-05-14T22:52:02.493Z,101411.16
2023-05-14T22:54:30.726Z,101421.38
2023-05-14T22:56:57.606Z,101425.91
2023-05-14T22:59:24.434Z,101426.44
2023-05-14T23:01:51.381Z,101429.72
2023-05-14T23:04:18.266Z,101416.72
2023-05-14T23:06:45.242Z,101428.25
2023-05-14T23:09:12.145Z,101426.13
2023-05-14T23:11:40.322Z,101427.47
2023-05-14T23:14:07.198Z,101433.09
2023-05-14T23:16:34.081Z,101426.44
2023-05-14T23:19:01.248Z,101421.13
2023-05-14T23:21:28.254Z,101426.56
2023-05-14T23:23:55.180Z,101421.81
2023-05-14T23:26:22.013Z,101427.81
2023-05-14T23:28:51.187Z,101423.38
2023-05-14T23:31:18.078Z,101411.25
2023-05-14T23:33:45.040Z,101418.47
2023-05-14T23:36:11.963Z,101396.84
2023-05-14T23:38:38.969Z,101396.88
2023-05-14T23:41:05.819Z,101390.25
2023-05-14T23:43:33.871Z,101391.41
2023-05-14T23:46:02.545Z,101382.38
2023-05-14T23:48:29.666Z,101377.31
2023-05-14T23:50:56.540Z,101376.50
2023-05-14T23:53:23.470Z,101372.22
2023-05-14T23:55:50.448Z,101364.69
2023-05-14T23:58:17.482Z,101368.22
